createdAt,value
2022-08-12T00:00:10.437Z,18.50
2022-08-12T00:02:56.188Z,18.40
2022-08-12T00:06:00.364Z,18.30
2022-08-12T00:08:49.985Z,18.20
2022-08-12T00:11:35.276Z,18.20
2022-08-12T00:14:22.347Z,18.20
2022-08-12T00:17:08.371Z,18.30
2022-08-12T00:19:54.368Z,18.30
2022-08-12T00:22:40.993Z,18.30
2022-08-12T00:26:01.204Z,18.30
2022-08-12T00:28:34.492Z,18.30
2022-08-12T00:31:21.526Z,18.40
2022-08-12T00:34:07.150Z,18.40
2022-08-12T00:36:52.756Z,18.30
2022-08-12T00:39:39.311Z,18.20
2022-08-12T00:42:10.823Z,18.20
2022-08-12T00:44:42.282Z,18.20
2022-08-12T00:47:24.623Z,18.20
2022-08-12T00:49:55.596Z,18.20
2022-08-12T00:52:24.736Z,18.20
2022-08-12T00:54:57.022Z,18.20
2022-08-12T00:57:28.760Z,18.20
2022-08-12T00:59:58.795Z,18.10
2022-08-12T01:02:29.669Z,18.20
2022-08-12T01:05:17.581Z,18.10
2022-08-12T01:08:04.697Z,18.10
2022-08-12T01:10:52.630Z,18.10
2022-08-12T01:13:22.127Z,18.00
2022-08-12T01:15:52.392Z,18.00
2022-08-12T01:18:23.702Z,18.00
2022-08-12T01:21:01.194Z,17.90
2022-08-12T01:23:43.506Z,17.90
2022-08-12T01:26:18.279Z,17.80
2022-08-12T01:28:50.336Z,17.70
2022-08-12T01:31:20.924Z,17.70
2022-08-12T01:33:59.708Z,17.70
2022-08-12T01:36:29.325Z,17.60
2022-08-12T01:39:00.848Z,17.60
2022-08-12T01:41:32.537Z,17.60
2022-08-12T01:44:02.516Z,17.70
2022-08-12T01:46:43.293Z,17.60
2022-08-12T01:49:33.757Z,17.60
2022-08-12T01:52:20.289Z,17.60
2022-08-12T01:54:52.382Z,17.50
2022-08-12T01:57:59.033Z,17.40
2022-08-12T02:00:19.031Z,17.40
2022-08-12T02:02:54.258Z,17.30
2022-08-12T02:05:49.695Z,17.30
2022-08-12T02:08:52.336Z,17.20
2022-08-12T02:11:24.732Z,17.10
2022-08-12T02:14:29.457Z,17.10
2022-08-12T02:17:09.029Z,17.00
2022-08-12T02:19:49.493Z,17.00
2022-08-12T02:22:30.184Z,16.90
2022-08-12T02:25:06.342Z,17.00
2022-08-12T02:27:40.130Z,17.00
2022-08-12T02:30:11.169Z,17.00
2022-08-12T02:32:43.275Z,17.00
2022-08-12T02:35:15.260Z,17.00
2022-08-12T02:37:45.540Z,17.00
2022-08-12T02:40:15.844Z,16.90
2022-08-12T02:42:51.327Z,16.80
2022-08-12T02:45:24.935Z,16.80
2022-08-12T02:48:01.095Z,16.70
2022-08-12T02:50:32.380Z,16.70
2022-08-12T02:53:01.539Z,16.70
2022-08-12T02:55:35.230Z,16.60
2022-08-12T02:58:09.204Z,16.60
2022-08-12T03:00:42.918Z,16.50
2022-08-12T03:03:14.080Z,16.40
2022-08-12T03:05:48.579Z,16.40
2022-08-12T03:08:31.455Z,16.30
2022-08-12T03:11:06.210Z,16.30
2022-08-12T03:13:43.263Z,16.20
2022-08-12T03:16:11.765Z,16.20
2022-08-12T03:18:45.694Z,16.10
2022-08-12T03:21:16.660Z,16.10
2022-08-12T03:23:47.012Z,16.00
2022-08-12T03:26:15.677Z,16.00
2022-08-12T03:28:54.266Z,16.00
2022-08-12T03:31:25.522Z,16.00
2022-08-12T03:34:02.333Z,15.80
2022-08-12T03:36:35.244Z,15.80
2022-08-12T03:39:36.071Z,15.80
2022-08-12T03:42:22.299Z,15.70
2022-08-12T03:45:15.833Z,15.70
2022-08-12T03:48:08.263Z,15.70
2022-08-12T03:50:57.799Z,15.70
2022-08-12T03:53:45.724Z,15.60
2022-08-12T03:56:31.693Z,15.60
2022-08-12T03:59:18.107Z,15.60
2022-08-12T04:01:52.360Z,15.50
2022-08-12T04:04:22.548Z,15.50
2022-08-12T04:06:52.530Z,15.50
2022-08-12T04:09:22.291Z,15.50
2022-08-12T04:12:08.851Z,15.50
2022-08-12T04:14:37.676Z,15.40
2022-08-12T04:17:06.101Z,15.30
2022-08-12T04:19:34.210Z,15.40
2022-08-12T04:22:03.992Z,15.30
2022-08-12T04:24:34.610Z,15.30
2022-08-12T04:27:05.129Z,15.20
2022-08-12T04:30:21.409Z,15.20
2022-08-12T04:32:22.590Z,15.20
2022-08-12T04:34:51.201Z,15.20
2022-08-12T04:37:20.766Z,15.20
2022-08-12T04:39:49.843Z,15.20
2022-08-12T04:42:18.545Z,15.30
2022-08-12T04:44:46.842Z,15.40
2022-08-12T04:47:16.493Z,15.40
2022-08-12T04:49:46.461Z,15.40
2022-08-12T04:52:15.093Z,15.50
2022-08-12T04:54:44.762Z,15.50
2022-08-12T04:57:12.813Z,15.50
2022-08-12T04:59:47.168Z,15.60
2022-08-12T05:02:21.184Z,15.70
2022-08-12T05:04:51.610Z,15.70
2022-08-12T05:07:20.048Z,15.80
2022-08-12T05:10:01.103Z,15.90
2022-08-12T05:12:37.076Z,15.90
2022-08-12T05:15:19.868Z,16.00
2022-08-12T05:17:55.515Z,16.10
2022-08-12T05:20:26.042Z,16.20
2022-08-12T05:23:12.683Z,16.20
2022-08-12T05:25:44.027Z,16.30
2022-08-12T05:28:13.443Z,16.30
2022-08-12T05:30:42.614Z,16.40
2022-08-12T05:33:12.271Z,16.50
2022-08-12T05:35:43.556Z,16.50
2022-08-12T05:38:30.412Z,16.60
2022-08-12T05:41:00.085Z,16.70
2022-08-12T05:43:28.759Z,16.80
2022-08-12T05:45:57.248Z,16.90
2022-08-12T05:48:25.639Z,17.00
2022-08-12T05:50:53.918Z,17.10
2022-08-12T05:53:22.093Z,17.20
2022-08-12T05:55:52.567Z,17.30
2022-08-12T05:58:22.242Z,17.40
2022-08-12T06:00:50.422Z,17.60
2022-08-12T06:03:19.732Z,17.80
2022-08-12T06:05:54.459Z,18.00
2022-08-12T06:08:22.889Z,18.10
2022-08-12T06:10:51.641Z,18.30
2022-08-12T06:13:28.369Z,18.30
2022-08-12T06:16:10.500Z,18.50
2022-08-12T06:18:40.758Z,18.70
2022-08-12T06:21:09.297Z,18.80
2022-08-12T06:23:42.283Z,19.00
2022-08-12T06:26:13.147Z,19.10
2022-08-12T06:28:43.248Z,19.30
2022-08-12T06:31:25.796Z,19.40
2022-08-12T06:34:01.204Z,19.60
2022-08-12T06:36:43.236Z,19.80
2022-08-12T06:39:14.819Z,19.90
2022-08-12T06:42:30.604Z,20.10
2022-08-12T06:44:50.836Z,20.30
2022-08-12T06:47:19.720Z,20.50
2022-08-12T06:49:50.078Z,20.70
2022-08-12T06:52:19.268Z,20.70
2022-08-12T06:54:47.282Z,20.80
2022-08-12T06:58:06.487Z,21.00
2022-08-12T07:00:05.955Z,21.10
2022-08-12T07:02:37.045Z,21.30
2022-08-12T07:05:05.828Z,21.50
2022-08-12T07:07:33.814Z,21.60
2022-08-12T07:10:06.434Z,21.70
2022-08-12T07:12:36.919Z,21.80
2022-08-12T07:15:07.918Z,22.00
2022-08-12T07:17:37.520Z,22.10
2022-08-12T07:20:09.969Z,22.30
2022-08-12T07:22:39.067Z,22.50
2022-08-12T07:25:25.826Z,22.70
2022-08-12T07:27:55.705Z,22.90
2022-08-12T07:30:25.483Z,23.10
2022-08-12T07:32:58.534Z,23.20
2022-08-12T07:35:29.947Z,23.30
2022-08-12T07:38:00.537Z,23.40
2022-08-12T07:40:30.796Z,23.50
2022-08-12T07:42:59.058Z,23.60
2022-08-12T07:45:28.771Z,23.60
2022-08-12T07:47:57.074Z,23.80
2022-08-12T07:50:25.603Z,23.90
2022-08-12T07:52:53.839Z,24.00
2022-08-12T07:55:22.035Z,24.10
2022-08-12T07:57:54.096Z,24.20
2022-08-12T08:00:23.049Z,24.20
2022-08-12T08:02:54.421Z,24.30
2022-08-12T08:05:24.088Z,24.50
2022-08-12T08:07:53.537Z,24.50
2022-08-12T08:10:21.746Z,24.60
2022-08-12T08:12:54.726Z,24.60
2022-08-12T08:15:44.569Z,24.80
2022-08-12T08:18:26.405Z,24.90
2022-08-12T08:20:57.353Z,25.00
2022-08-12T08:23:56.170Z,25.10
2022-08-12T08:26:27.287Z,25.20
2022-08-12T08:28:55.624Z,25.40
2022-08-12T08:31:26.673Z,25.50
2022-08-12T08:34:33.870Z,25.70
2022-08-12T08:36:50.106Z,25.80
2022-08-12T08:39:21.245Z,25.80
2022-08-12T08:42:18.109Z,25.90
2022-08-12T08:44:49.734Z,25.90
2022-08-12T08:47:26.356Z,26.10
2022-08-12T08:50:01.333Z,26.20
2022-08-12T08:52:35.317Z,26.30
2022-08-12T08:55:10.398Z,26.40
2022-08-12T08:57:42.898Z,26.50
2022-08-12T09:00:15.539Z,26.70
2022-08-12T09:02:49.571Z,26.90
2022-08-12T09:05:43.096Z,27.00
2022-08-12T09:14:18.540Z,27.30
2022-08-12T09:19:37.129Z,27.60
2022-08-12T09:22:09.823Z,27.60
2022-08-12T09:24:48.559Z,27.80
2022-08-12T09:27:17.761Z,27.80
2022-08-12T09:30:10.344Z,27.90
2022-08-12T09:33:04.984Z,28.00
2022-08-12T09:35:28.255Z,28.10
2022-08-12T09:38:01.111Z,28.10
2022-08-12T09:40:57.148Z,28.20
2022-08-12T09:43:37.859Z,28.30
2022-08-12T09:46:25.038Z,28.40
2022-08-12T09:48:56.327Z,28.50
2022-08-12T09:51:37.428Z,28.60
2022-08-12T09:54:34.850Z,28.90
2022-08-12T09:58:45.868Z,28.90
2022-08-12T10:00:16.499Z,28.90
2022-08-12T10:02:44.629Z,29.00
2022-08-12T10:05:20.581Z,29.10
2022-08-12T10:07:48.868Z,29.00
2022-08-12T10:10:22.849Z,28.90
2022-08-12T10:13:14.188Z,29.00
2022-08-12T10:16:01.896Z,29.00
2022-08-12T10:18:35.757Z,29.10
2022-08-12T10:21:07.788Z,29.00
2022-08-12T10:23:39.804Z,29.20
2022-08-12T10:26:36.558Z,29.30
2022-08-12T10:30:38.976Z,29.30
2022-08-12T10:32:44.653Z,29.40
2022-08-12T10:35:09.741Z,29.30
2022-08-12T10:38:34.338Z,29.40
2022-08-12T10:40:32.165Z,29.40
2022-08-12T10:43:20.161Z,29.50
2022-08-12T10:45:49.157Z,29.60
2022-08-12T10:48:33.383Z,29.60
2022-08-12T10:52:02.648Z,29.70
2022-08-12T10:54:00.983Z,29.80
2022-08-12T10:56:34.556Z,29.80
2022-08-12T10:59:10.867Z,29.90
2022-08-12T11:04:18.968Z,30.00
2022-08-12T11:04:45.170Z,30.10
2022-08-12T11:08:33.893Z,30.10
2022-08-12T11:10:07.636Z,30.20
2022-08-12T11:12:55.374Z,30.10
2022-08-12T11:16:04.147Z,30.00
2022-08-12T11:18:17.938Z,30.30
2022-08-12T11:20:48.578Z,30.40
2022-08-12T11:23:35.633Z,30.40
2022-08-12T11:26:07.965Z,30.40
2022-08-12T11:28:38.537Z,30.30
2022-08-12T11:31:13.253Z,30.50
2022-08-12T11:34:06.568Z,30.30
2022-08-12T11:36:31.851Z,30.20
2022-08-12T11:39:04.410Z,30.20
2022-08-12T11:41:33.528Z,30.10
2022-08-12T11:44:35.044Z,30.30
2022-08-12T11:46:53.993Z,30.30
2022-08-12T11:49:31.028Z,30.50
2022-08-12T11:52:02.325Z,30.60
2022-08-12T11:54:31.093Z,30.60
2022-08-12T11:57:02.538Z,30.60
2022-08-12T12:02:22.052Z,30.60
2022-08-12T12:04:52.859Z,30.70
2022-08-12T12:08:36.247Z,30.60
2022-08-12T12:10:13.103Z,30.70
2022-08-12T12:12:49.523Z,30.90
2022-08-12T12:15:25.401Z,30.90
2022-08-12T12:18:08.271Z,31.00
2022-08-12T12:20:40.971Z,31.00
2022-08-12T12:23:28.797Z,31.10
2022-08-12T12:26:07.118Z,31.10
2022-08-12T12:28:41.601Z,31.10
2022-08-12T12:32:11.153Z,31.00
2022-08-12T12:34:30.319Z,31.10
2022-08-12T12:37:00.919Z,31.10
2022-08-12T12:39:29.425Z,31.10
2022-08-12T12:42:42.919Z,31.50
2022-08-12T12:45:19.011Z,31.40
2022-08-12T12:47:59.680Z,31.50
2022-08-12T12:50:35.961Z,31.40
2022-08-12T12:54:08.796Z,31.30
2022-08-12T12:56:04.383Z,31.40
2022-08-12T12:58:33.997Z,31.30
2022-08-12T13:01:04.981Z,31.30
2022-08-12T13:03:54.195Z,31.30
2022-08-12T13:06:30.278Z,31.20
2022-08-12T13:09:02.618Z,31.20
2022-08-12T13:11:32.737Z,31.40
2022-08-12T13:14:27.857Z,31.50
2022-08-12T13:16:58.335Z,31.70
2022-08-12T13:19:37.467Z,31.60
2022-08-12T13:22:20.267Z,31.60
2022-08-12T13:24:51.885Z,31.60
2022-08-12T13:27:23.121Z,31.50
2022-08-12T13:30:00.820Z,31.50
2022-08-12T13:32:31.960Z,31.70
2022-08-12T13:35:04.168Z,31.90
2022-08-12T13:37:55.282Z,31.80
2022-08-12T13:40:25.039Z,31.90
2022-08-12T13:43:02.566Z,31.90
2022-08-12T13:45:35.281Z,31.90
2022-08-12T13:48:06.315Z,31.90
2022-08-12T13:50:37.456Z,31.90
2022-08-12T13:53:23.961Z,31.90
2022-08-12T13:55:59.482Z,32.00
2022-08-12T13:58:32.979Z,31.80
2022-08-12T14:01:06.011Z,31.80
2022-08-12T14:03:50.246Z,31.80
2022-08-12T14:06:20.807Z,31.80
2022-08-12T14:08:50.775Z,31.90
2022-08-12T14:11:25.404Z,32.00
2022-08-12T14:14:03.555Z,32.00
2022-08-12T14:16:48.507Z,31.90
2022-08-12T14:19:22.299Z,31.70
2022-08-12T14:21:59.058Z,31.50
2022-08-12T14:24:31.463Z,31.50
2022-08-12T14:27:02.591Z,31.30
2022-08-12T14:29:55.699Z,31.30
2022-08-12T14:32:20.150Z,31.30
2022-08-12T14:34:52.994Z,31.50
2022-08-12T14:37:55.936Z,31.40
2022-08-12T14:40:18.354Z,31.40
2022-08-12T14:42:47.212Z,31.40
2022-08-12T14:45:15.609Z,31.30
2022-08-12T14:47:51.386Z,31.40
2022-08-12T14:50:58.182Z,31.40
2022-08-12T14:59:23.135Z,31.30
2022-08-12T15:01:52.221Z,31.20
2022-08-12T15:04:26.235Z,31.30
2022-08-12T15:06:55.148Z,31.30
2022-08-12T15:09:29.280Z,31.30
2022-08-12T15:12:03.951Z,31.20
2022-08-12T15:14:35.333Z,31.10
2022-08-12T15:17:07.759Z,31.00
2022-08-12T15:20:31.008Z,30.90
2022-08-12T15:22:37.233Z,30.90
2022-08-12T15:25:17.585Z,30.90
2022-08-12T15:28:05.719Z,31.00
2022-08-12T15:30:37.263Z,31.00
2022-08-12T15:33:12.841Z,31.00
2022-08-12T15:35:51.964Z,30.90
2022-08-12T15:38:22.119Z,31.00
2022-08-12T15:40:54.212Z,30.80
2022-08-12T15:43:51.976Z,30.90
2022-08-12T15:46:15.540Z,30.90
2022-08-12T15:48:46.361Z,30.90
2022-08-12T15:51:57.243Z,30.90
2022-08-12T15:54:31.367Z,31.00
2022-08-12T15:57:08.219Z,31.20
2022-08-12T16:00:00.196Z,31.20
2022-08-12T16:02:29.623Z,31.20
2022-08-12T16:04:58.757Z,31.30
2022-08-12T16:07:37.095Z,31.30
2022-08-12T16:10:09.259Z,31.20
2022-08-12T16:12:43.512Z,31.30
2022-08-12T16:15:29.554Z,31.50
2022-08-12T16:18:15.040Z,31.50
2022-08-12T16:20:47.752Z,31.60
2022-08-12T16:23:26.630Z,31.80
2022-08-12T16:26:10.090Z,31.40
2022-08-12T16:28:42.557Z,31.20
2022-08-12T16:31:19.224Z,31.20
2022-08-12T16:33:59.763Z,31.00
2022-08-12T16:36:29.412Z,31.10
2022-08-12T16:38:57.721Z,31.30
2022-08-12T16:41:38.262Z,31.40
2022-08-12T16:44:09.038Z,31.40
2022-08-12T16:46:39.063Z,31.00
2022-08-12T16:49:13.084Z,30.70
2022-08-12T16:51:46.812Z,30.50
2022-08-12T16:54:16.470Z,30.50
2022-08-12T16:56:55.457Z,30.30
2022-08-12T16:59:30.851Z,30.40
2022-08-12T17:02:34.031Z,30.40
2022-08-12T17:05:05.119Z,30.40
2022-08-12T17:07:38.260Z,30.30
2022-08-12T17:10:14.044Z,30.20
2022-08-12T17:12:46.924Z,30.00
2022-08-12T17:15:51.190Z,30.00
2022-08-12T17:18:39.198Z,30.00
2022-08-12T17:20:58.801Z,29.90
2022-08-12T17:23:47.934Z,29.80
2022-08-12T17:26:18.584Z,29.60
2022-08-12T17:28:53.276Z,29.40
2022-08-12T17:31:59.923Z,29.30
2022-08-12T17:34:33.580Z,29.20
2022-08-12T17:37:05.528Z,29.20
2022-08-12T17:40:15.141Z,29.10
2022-08-12T17:42:34.130Z,29.10
2022-08-12T17:45:17.511Z,29.10
2022-08-12T17:48:04.945Z,29.00
2022-08-12T17:50:38.694Z,29.00
2022-08-12T17:53:10.149Z,29.00
2022-08-12T17:55:47.722Z,29.00
2022-08-12T17:58:18.444Z,29.00
2022-08-12T18:00:51.618Z,28.80
2022-08-12T18:04:04.710Z,28.60
2022-08-12T18:06:13.870Z,28.40
2022-08-12T18:08:54.847Z,28.20
2022-08-12T18:12:04.479Z,28.00
2022-08-12T18:14:30.324Z,27.80
2022-08-12T18:17:00.410Z,27.50
2022-08-12T18:20:04.197Z,27.40
2022-08-12T18:22:22.298Z,27.40
2022-08-12T18:25:02.693Z,27.30
2022-08-12T18:27:43.889Z,27.20
2022-08-12T18:30:20.830Z,27.00
2022-08-12T18:33:03.462Z,26.80
2022-08-12T18:35:46.317Z,26.60
2022-08-12T18:38:19.200Z,26.60
2022-08-12T18:41:06.870Z,26.40
2022-08-12T18:43:57.421Z,26.20
2022-08-12T18:46:32.204Z,26.00
2022-08-12T18:49:17.947Z,25.80
2022-08-12T18:51:55.059Z,25.60
2022-08-12T18:54:34.757Z,25.30
2022-08-12T18:57:16.643Z,25.10
2022-08-12T19:00:02.628Z,24.90
2022-08-12T19:02:40.468Z,24.70
2022-08-12T19:05:14.333Z,24.60
2022-08-12T19:07:49.702Z,24.40
2022-08-12T19:10:28.309Z,24.20
2022-08-12T19:13:21.047Z,24.10
2022-08-12T19:15:53.482Z,23.90
2022-08-12T19:18:24.425Z,23.80
2022-08-12T19:20:52.501Z,23.70
2022-08-12T19:23:22.468Z,23.50
2022-08-12T19:25:59.396Z,23.40
2022-08-12T19:28:34.605Z,23.30
2022-08-12T19:31:55.353Z,23.10
2022-08-12T19:37:20.311Z,23.00
2022-08-12T19:40:10.059Z,22.90
2022-08-12T19:42:44.845Z,22.80
2022-08-12T19:45:17.378Z,22.80
2022-08-12T19:47:46.871Z,22.60
2022-08-12T19:50:20.243Z,22.60
2022-08-12T19:52:53.027Z,22.50
2022-08-12T19:55:25.073Z,22.40
2022-08-12T19:58:02.288Z,22.30
2022-08-12T20:00:34.717Z,22.30
2022-08-12T20:03:05.333Z,22.20
2022-08-12T20:06:06.139Z,22.10
2022-08-12T20:08:34.543Z,22.10
2022-08-12T20:12:13.025Z,22.00
2022-08-12T20:14:01.351Z,21.90
2022-08-12T20:16:56.539Z,21.90
2022-08-12T20:19:53.276Z,21.80
2022-08-12T20:22:24.650Z,21.70
2022-08-12T20:25:01.506Z,21.60
2022-08-12T20:28:05.212Z,21.60
2022-08-12T20:30:38.173Z,21.50
2022-08-12T20:33:17.765Z,21.50
2022-08-12T20:36:06.574Z,21.40
2022-08-12T20:38:40.469Z,21.40
2022-08-12T20:41:16.726Z,21.30
2022-08-12T20:43:52.871Z,21.30
2022-08-12T20:46:23.767Z,21.20
2022-08-12T20:48:57.746Z,21.10
2022-08-12T20:52:05.153Z,21.10
2022-08-12T20:54:33.923Z,21.00
2022-08-12T20:57:08.811Z,20.90
2022-08-12T20:59:49.423Z,20.90
2022-08-12T21:03:15.077Z,20.80
2022-08-12T21:06:12.116Z,20.80
2022-08-12T21:08:42.014Z,20.80
2022-08-12T21:11:10.537Z,20.70
2022-08-12T21:13:41.727Z,20.70
2022-08-12T21:16:10.490Z,20.70
2022-08-12T21:18:41.134Z,20.60
2022-08-12T21:21:23.153Z,20.60
2022-08-12T21:23:56.501Z,20.50
2022-08-12T21:26:27.832Z,20.50
2022-08-12T21:29:01.376Z,20.40
2022-08-12T21:34:56.816Z,20.40
2022-08-12T21:37:27.838Z,20.40
2022-08-12T21:40:13.273Z,20.30
2022-08-12T21:42:42.395Z,20.30
2022-08-12T21:45:46.408Z,20.30
2022-08-12T21:48:02.178Z,20.30
2022-08-12T21:50:33.392Z,20.30
2022-08-12T21:53:10.578Z,20.20
2022-08-12T21:55:39.557Z,20.10
2022-08-12T21:58:11.809Z,20.10
2022-08-12T22:00:44.703Z,20.00
2022-08-12T22:04:04.134Z,19.90
2022-08-12T22:06:31.285Z,19.90
2022-08-12T22:09:16.233Z,19.80
2022-08-12T22:11:49.042Z,19.80
2022-08-12T22:14:25.046Z,19.70
2022-08-12T22:16:55.644Z,19.60
2022-08-12T22:19:23.888Z,19.50
2022-08-12T22:21:55.918Z,19.50
2022-08-12T22:24:26.778Z,19.50
2022-08-12T22:26:57.636Z,19.40
2022-08-12T22:29:43.352Z,19.30
2022-08-12T22:32:12.102Z,19.30
2022-08-12T22:34:40.532Z,19.20
2022-08-12T22:37:20.056Z,19.20
2022-08-12T22:39:49.422Z,19.20
2022-08-12T22:42:36.285Z,19.10
2022-08-12T22:45:27.818Z,19.10
2022-08-12T22:47:58.515Z,19.00
2022-08-12T22:50:28.657Z,19.00
2022-08-12T22:53:14.984Z,18.90
2022-08-12T22:56:06.482Z,18.90
2022-08-12T22:58:35.183Z,18.90
2022-08-12T23:01:04.113Z,18.80
2022-08-12T23:03:49.476Z,18.80
2022-08-12T23:06:21.348Z,18.80
2022-08-12T23:08:51.776Z,18.80
2022-08-12T23:11:23.754Z,18.80
2022-08-12T23:13:56.865Z,18.70
2022-08-12T23:16:31.096Z,18.70
2022-08-12T23:19:09.681Z,18.70
2022-08-12T23:22:03.611Z,18.60
2022-08-12T23:24:31.878Z,18.60
2022-08-12T23:27:21.544Z,18.60
2022-08-12T23:30:05.932Z,18.50
2022-08-12T23:32:37.986Z,18.40
2022-08-12T23:35:08.044Z,18.40
2022-08-12T23:37:47.355Z,18.40
2022-08-12T23:40:25.534Z,18.30
2022-08-12T23:42:55.201Z,18.30
2022-08-12T23:45:31.647Z,18.30
2022-08-12T23:48:02.827Z,18.20
2022-08-12T23:50:33.769Z,18.20
2022-08-12T23:53:05.611Z,18.20
2022-08-12T23:55:40.805Z,18.10
2022-08-12T23:58:22.422Z,18.10
